sensor_id;sensor_type;location;lat;lon;timestamp;P1;durP1;ratioP1;P2;durP2;ratioP2
10260;SDS011;5175;42.606;23.388;2023-05-31T00:00:00;7.20;;;6.47;;
10260;SDS011;5175;42.606;23.388;2023-05-31T00:02:27;6.78;;;6.15;;
10260;SDS011;5175;42.606;23.388;2023-05-31T00:04:54;7.10;;;6.40;;
10260;SDS011;5175;42.606;23.388;2023-05-31T00:07:23;7.60;;;6.17;;
10260;SDS011;5175;42.606;23.388;2023-05-31T00:09:50;7.07;;;6.30;;
10260;SDS011;5175;42.606;23.388;2023-05-31T00:12:18;7.27;;;6.53;;
10260;SDS011;5175;42.606;23.388;2023-05-31T00:14:45;6.73;;;6.13;;
10260;SDS011;5175;42.606;23.388;2023-05-31T00:17:12;7.87;;;6.63;;
10260;SDS011;5175;42.606;23.388;2023-05-31T00:19:39;6.87;;;6.27;;
10260;SDS011;5175;42.606;23.388;2023-05-31T00:22:06;7.27;;;6.57;;
10260;SDS011;5175;42.606;23.388;2023-05-31T00:24:32;6.67;;;5.70;;
10260;SDS011;5175;42.606;23.388;2023-05-31T00:26:59;5.67;;;5.10;;
10260;SDS011;5175;42.606;23.388;2023-05-31T00:29:28;6.57;;;5.50;;
10260;SDS011;5175;42.606;23.388;2023-05-31T00:31:55;6.43;;;5.30;;
10260;SDS011;5175;42.606;23.388;2023-05-31T00:34:22;7.10;;;5.80;;
10260;SDS011;5175;42.606;23.388;2023-05-31T00:36:49;6.93;;;5.77;;
10260;SDS011;5175;42.606;23.388;2023-05-31T00:39:16;10.03;;;5.67;;
10260;SDS011;5175;42.606;23.388;2023-05-31T00:41:43;6.67;;;5.90;;
10260;SDS011;5175;42.606;23.388;2023-05-31T00:44:10;6.20;;;5.57;;
10260;SDS011;5175;42.606;23.388;2023-05-31T00:46:38;6.67;;;5.90;;
10260;SDS011;5175;42.606;23.388;2023-05-31T00:49:07;7.00;;;6.17;;
10260;SDS011;5175;42.606;23.388;2023-05-31T00:51:34;6.73;;;5.90;;
10260;SDS011;5175;42.606;23.388;2023-05-31T00:54:02;6.30;;;5.70;;
10260;SDS011;5175;42.606;23.388;2023-05-31T00:56:29;6.63;;;5.70;;
10260;SDS011;5175;42.606;23.388;2023-05-31T00:58:56;6.60;;;5.50;;
10260;SDS011;5175;42.606;23.388;2023-05-31T01:01:25;5.97;;;5.38;;
10260;SDS011;5175;42.606;23.388;2023-05-31T01:03:59;6.05;;;5.30;;
10260;SDS011;5175;42.606;23.388;2023-05-31T01:06:26;6.07;;;5.57;;
10260;SDS011;5175;42.606;23.388;2023-05-31T01:08:57;7.03;;;5.47;;
10260;SDS011;5175;42.606;23.388;2023-05-31T01:11:26;5.90;;;5.40;;
10260;SDS011;5175;42.606;23.388;2023-05-31T01:14:00;6.10;;;5.60;;
10260;SDS011;5175;42.606;23.388;2023-05-31T01:16:37;6.68;;;5.50;;
10260;SDS011;5175;42.606;23.388;2023-05-31T01:19:12;6.00;;;5.40;;
10260;SDS011;5175;42.606;23.388;2023-05-31T01:21:48;6.43;;;5.47;;
10260;SDS011;5175;42.606;23.388;2023-05-31T01:24:34;5.60;;;5.10;;
10260;SDS011;5175;42.606;23.388;2023-05-31T01:27:11;6.70;;;5.43;;
10260;SDS011;5175;42.606;23.388;2023-05-31T01:29:41;6.23;;;5.63;;
10260;SDS011;5175;42.606;23.388;2023-05-31T01:32:10;6.97;;;6.27;;
10260;SDS011;5175;42.606;23.388;2023-05-31T01:34:39;6.77;;;6.00;;
10260;SDS011;5175;42.606;23.388;2023-05-31T01:37:09;7.33;;;5.57;;
10260;SDS011;5175;42.606;23.388;2023-05-31T01:39:36;7.13;;;5.87;;
10260;SDS011;5175;42.606;23.388;2023-05-31T01:42:03;6.90;;;6.30;;
10260;SDS011;5175;42.606;23.388;2023-05-31T01:44:32;6.03;;;5.33;;
10260;SDS011;5175;42.606;23.388;2023-05-31T01:47:01;8.27;;;5.93;;
10260;SDS011;5175;42.606;23.388;2023-05-31T01:49:28;6.13;;;5.60;;
10260;SDS011;5175;42.606;23.388;2023-05-31T01:51:55;6.90;;;5.73;;
10260;SDS011;5175;42.606;23.388;2023-05-31T01:54:24;7.37;;;5.90;;
10260;SDS011;5175;42.606;23.388;2023-05-31T01:56:51;6.53;;;5.93;;
10260;SDS011;5175;42.606;23.388;2023-05-31T01:59:19;6.43;;;5.87;;
10260;SDS011;5175;42.606;23.388;2023-05-31T02:01:48;6.83;;;6.23;;
10260;SDS011;5175;42.606;23.388;2023-05-31T02:04:17;7.33;;;6.07;;
10260;SDS011;5175;42.606;23.388;2023-05-31T02:06:44;7.47;;;5.97;;
10260;SDS011;5175;42.606;23.388;2023-05-31T02:09:11;6.00;;;5.40;;
10260;SDS011;5175;42.606;23.388;2023-05-31T02:11:39;6.53;;;5.93;;
10260;SDS011;5175;42.606;23.388;2023-05-31T02:14:06;7.43;;;6.63;;
10260;SDS011;5175;42.606;23.388;2023-05-31T02:16:32;9.30;;;6.50;;
10260;SDS011;5175;42.606;23.388;2023-05-31T02:19:00;7.23;;;6.53;;
10260;SDS011;5175;42.606;23.388;2023-05-31T02:21:28;6.90;;;6.30;;
10260;SDS011;5175;42.606;23.388;2023-05-31T02:23:55;6.25;;;5.65;;
10260;SDS011;5175;42.606;23.388;2023-05-31T02:26:22;6.70;;;5.70;;
10260;SDS011;5175;42.606;23.388;2023-05-31T02:28:49;6.40;;;5.80;;
10260;SDS011;5175;42.606;23.388;2023-05-31T02:31:16;5.80;;;5.30;;
10260;SDS011;5175;42.606;23.388;2023-05-31T02:33:42;6.83;;;5.50;;
10260;SDS011;5175;42.606;23.388;2023-05-31T02:36:11;5.30;;;4.90;;
10260;SDS011;5175;42.606;23.388;2023-05-31T02:38:38;6.43;;;5.83;;
10260;SDS011;5175;42.606;23.388;2023-05-31T02:41:04;6.13;;;5.30;;
10260;SDS011;5175;42.606;23.388;2023-05-31T02:43:31;6.03;;;5.53;;
10260;SDS011;5175;42.606;23.388;2023-05-31T02:46:00;6.60;;;5.70;;
10260;SDS011;5175;42.606;23.388;2023-05-31T02:48:27;6.13;;;5.47;;
10260;SDS011;5175;42.606;23.388;2023-05-31T02:50:54;5.77;;;5.17;;
10260;SDS011;5175;42.606;23.388;2023-05-31T02:53:23;6.90;;;5.40;;
10260;SDS011;5175;42.606;23.388;2023-05-31T02:55:51;6.80;;;6.20;;
10260;SDS011;5175;42.606;23.388;2023-05-31T02:58:19;6.77;;;6.10;;
10260;SDS011;5175;42.606;23.388;2023-05-31T03:00:46;6.43;;;5.83;;
10260;SDS011;5175;42.606;23.388;2023-05-31T03:03:12;6.80;;;5.53;;
10260;SDS011;5175;42.606;23.388;2023-05-31T03:05:43;6.03;;;5.43;;
10260;SDS011;5175;42.606;23.388;2023-05-31T03:08:10;5.17;;;4.77;;
10260;SDS011;5175;42.606;23.388;2023-05-31T03:10:39;5.40;;;4.80;;
10260;SDS011;5175;42.606;23.388;2023-05-31T03:13:06;5.93;;;4.73;;
10260;SDS011;5175;42.606;23.388;2023-05-31T03:15:32;5.13;;;4.68;;
10260;SDS011;5175;42.606;23.388;2023-05-31T03:18:00;5.50;;;4.97;;
10260;SDS011;5175;42.606;23.388;2023-05-31T03:20:27;5.53;;;5.00;;
10260;SDS011;5175;42.606;23.388;2023-05-31T03:22:55;7.77;;;5.03;;
10260;SDS011;5175;42.606;23.388;2023-05-31T03:25:22;6.60;;;5.05;;
10260;SDS011;5175;42.606;23.388;2023-05-31T03:27:51;8.60;;;5.60;;
10260;SDS011;5175;42.606;23.388;2023-05-31T03:30:17;5.20;;;4.70;;
10260;SDS011;5175;42.606;23.388;2023-05-31T03:32:44;5.60;;;5.10;;
10260;SDS011;5175;42.606;23.388;2023-05-31T03:35:11;7.40;;;5.13;;
10260;SDS011;5175;42.606;23.388;2023-05-31T03:37:38;5.50;;;4.90;;
10260;SDS011;5175;42.606;23.388;2023-05-31T03:40:05;6.03;;;5.50;;
10260;SDS011;5175;42.606;23.388;2023-05-31T03:42:34;6.90;;;6.25;;
10260;SDS011;5175;42.606;23.388;2023-05-31T03:45:02;7.03;;;6.32;;
10260;SDS011;5175;42.606;23.388;2023-05-31T03:47:29;6.38;;;5.75;;
10260;SDS011;5175;42.606;23.388;2023-05-31T03:49:55;7.37;;;6.27;;
10260;SDS011;5175;42.606;23.388;2023-05-31T03:52:22;8.35;;;6.20;;
10260;SDS011;5175;42.606;23.388;2023-05-31T03:54:49;7.35;;;6.63;;
10260;SDS011;5175;42.606;23.388;2023-05-31T03:57:16;8.27;;;6.30;;
10260;SDS011;5175;42.606;23.388;2023-05-31T03:59:43;7.97;;;6.50;;
10260;SDS011;5175;42.606;23.388;2023-05-31T04:02:11;6.88;;;6.28;;
10260;SDS011;5175;42.606;23.388;2023-05-31T04:04:38;6.47;;;5.97;;
10260;SDS011;5175;42.606;23.388;2023-05-31T04:07:05;7.65;;;6.95;;
10260;SDS011;5175;42.606;23.388;2023-05-31T04:09:32;7.43;;;6.68;;
10260;SDS011;5175;42.606;23.388;2023-05-31T04:11:58;7.63;;;6.45;;
10260;SDS011;5175;42.606;23.388;2023-05-31T04:14:27;6.77;;;6.07;;
10260;SDS011;5175;42.606;23.388;2023-05-31T04:16:56;7.18;;;6.25;;
10260;SDS011;5175;42.606;23.388;2023-05-31T04:19:24;6.65;;;6.05;;
10260;SDS011;5175;42.606;23.388;2023-05-31T04:21:51;7.13;;;6.43;;
10260;SDS011;5175;42.606;23.388;2023-05-31T04:24:18;7.35;;;6.40;;
10260;SDS011;5175;42.606;23.388;2023-05-31T04:26:44;6.43;;;5.82;;
10260;SDS011;5175;42.606;23.388;2023-05-31T04:29:11;9.02;;;6.45;;
10260;SDS011;5175;42.606;23.388;2023-05-31T04:31:38;8.45;;;6.45;;
10260;SDS011;5175;42.606;23.388;2023-05-31T04:34:05;7.35;;;6.60;;
10260;SDS011;5175;42.606;23.388;2023-05-31T04:36:33;6.65;;;6.05;;
10260;SDS011;5175;42.606;23.388;2023-05-31T04:39:00;6.57;;;6.07;;
10260;SDS011;5175;42.606;23.388;2023-05-31T04:41:28;6.82;;;6.22;;
10260;SDS011;5175;42.606;23.388;2023-05-31T04:43:55;6.95;;;6.25;;
10260;SDS011;5175;42.606;23.388;2023-05-31T04:46:22;6.65;;;6.05;;
10260;SDS011;5175;42.606;23.388;2023-05-31T04:48:49;7.90;;;6.25;;
10260;SDS011;5175;42.606;23.388;2023-05-31T04:51:17;7.60;;;6.20;;
10260;SDS011;5175;42.606;23.388;2023-05-31T04:53:45;6.70;;;5.78;;
10260;SDS011;5175;42.606;23.388;2023-05-31T04:56:12;8.70;;;6.03;;
10260;SDS011;5175;42.606;23.388;2023-05-31T04:58:40;6.78;;;6.07;;
10260;SDS011;5175;42.606;23.388;2023-05-31T05:01:07;7.00;;;5.80;;
10260;SDS011;5175;42.606;23.388;2023-05-31T05:03:34;6.80;;;5.97;;
10260;SDS011;5175;42.606;23.388;2023-05-31T05:06:01;6.65;;;6.05;;
10260;SDS011;5175;42.606;23.388;2023-05-31T05:08:37;7.43;;;5.97;;
10260;SDS011;5175;42.606;23.388;2023-05-31T05:11:05;6.90;;;6.25;;
10260;SDS011;5175;42.606;23.388;2023-05-31T05:13:32;8.23;;;6.25;;
10260;SDS011;5175;42.606;23.388;2023-05-31T05:15:59;7.43;;;6.22;;
10260;SDS011;5175;42.606;23.388;2023-05-31T05:18:27;6.78;;;6.18;;
10260;SDS011;5175;42.606;23.388;2023-05-31T05:20:54;6.68;;;5.85;;
10260;SDS011;5175;42.606;23.388;2023-05-31T05:23:21;9.68;;;6.07;;
10260;SDS011;5175;42.606;23.388;2023-05-31T05:25:48;7.10;;;6.40;;
10260;SDS011;5175;42.606;23.388;2023-05-31T05:28:17;10.02;;;6.63;;
10260;SDS011;5175;42.606;23.388;2023-05-31T05:30:44;10.02;;;6.80;;
10260;SDS011;5175;42.606;23.388;2023-05-31T05:33:10;7.60;;;6.55;;
10260;SDS011;5175;42.606;23.388;2023-05-31T05:35:38;9.98;;;7.32;;
10260;SDS011;5175;42.606;23.388;2023-05-31T05:38:05;9.40;;;6.78;;
10260;SDS011;5175;42.606;23.388;2023-05-31T05:40:31;7.68;;;6.85;;
10260;SDS011;5175;42.606;23.388;2023-05-31T05:42:58;8.68;;;6.78;;
10260;SDS011;5175;42.606;23.388;2023-05-31T05:45:26;8.63;;;6.82;;
10260;SDS011;5175;42.606;23.388;2023-05-31T05:47:53;8.20;;;6.90;;
10260;SDS011;5175;42.606;23.388;2023-05-31T05:50:21;11.07;;;7.47;;
10260;SDS011;5175;42.606;23.388;2023-05-31T05:52:48;8.13;;;6.75;;
10260;SDS011;5175;42.606;23.388;2023-05-31T05:55:15;11.38;;;7.07;;
10260;SDS011;5175;42.606;23.388;2023-05-31T05:57:42;12.05;;;7.15;;
10260;SDS011;5175;42.606;23.388;2023-05-31T06:00:09;10.10;;;7.43;;
10260;SDS011;5175;42.606;23.388;2023-05-31T06:02:38;7.65;;;7.03;;
10260;SDS011;5175;42.606;23.388;2023-05-31T06:05:06;8.20;;;7.40;;
10260;SDS011;5175;42.606;23.388;2023-05-31T06:07:33;9.07;;;7.53;;
10260;SDS011;5175;42.606;23.388;2023-05-31T06:10:00;7.32;;;6.63;;
10260;SDS011;5175;42.606;23.388;2023-05-31T06:12:28;7.00;;;6.30;;
10260;SDS011;5175;42.606;23.388;2023-05-31T06:14:55;7.07;;;6.45;;
10260;SDS011;5175;42.606;23.388;2023-05-31T06:17:22;9.13;;;6.78;;
10260;SDS011;5175;42.606;23.388;2023-05-31T06:19:51;7.90;;;6.40;;
10260;SDS011;5175;42.606;23.388;2023-05-31T06:22:17;7.13;;;6.43;;
10260;SDS011;5175;42.606;23.388;2023-05-31T06:24:45;7.50;;;6.75;;
10260;SDS011;5175;42.606;23.388;2023-05-31T06:27:11;12.52;;;7.60;;
10260;SDS011;5175;42.606;23.388;2023-05-31T06:29:39;8.23;;;7.43;;
10260;SDS011;5175;42.606;23.388;2023-05-31T06:32:06;12.10;;;7.00;;
10260;SDS011;5175;42.606;23.388;2023-05-31T06:34:33;9.27;;;6.90;;
10260;SDS011;5175;42.606;23.388;2023-05-31T06:37:02;11.45;;;7.53;;
10260;SDS011;5175;42.606;23.388;2023-05-31T06:39:29;7.82;;;7.00;;
10260;SDS011;5175;42.606;23.388;2023-05-31T06:41:56;7.43;;;6.72;;
10260;SDS011;5175;42.606;23.388;2023-05-31T06:44:24;10.63;;;6.60;;
10260;SDS011;5175;42.606;23.388;2023-05-31T06:46:51;8.90;;;6.35;;
10260;SDS011;5175;42.606;23.388;2023-05-31T06:49:18;7.20;;;6.53;;
10260;SDS011;5175;42.606;23.388;2023-05-31T06:51:45;7.28;;;6.57;;
10260;SDS011;5175;42.606;23.388;2023-05-31T06:54:13;6.90;;;6.30;;
10260;SDS011;5175;42.606;23.388;2023-05-31T06:56:40;8.10;;;6.45;;
10260;SDS011;5175;42.606;23.388;2023-05-31T06:59:07;6.97;;;6.28;;
10260;SDS011;5175;42.606;23.388;2023-05-31T07:01:34;6.15;;;5.53;;
10260;SDS011;5175;42.606;23.388;2023-05-31T07:04:01;6.70;;;6.10;;
10260;SDS011;5175;42.606;23.388;2023-05-31T07:06:27;6.03;;;5.53;;
10260;SDS011;5175;42.606;23.388;2023-05-31T07:08:54;10.07;;;6.40;;
10260;SDS011;5175;42.606;23.388;2023-05-31T07:11:23;6.35;;;5.80;;
10260;SDS011;5175;42.606;23.388;2023-05-31T07:13:50;6.57;;;5.97;;
10260;SDS011;5175;42.606;23.388;2023-05-31T07:16:17;6.63;;;6.03;;
10260;SDS011;5175;42.606;23.388;2023-05-31T07:18:45;6.78;;;6.07;;
10260;SDS011;5175;42.606;23.388;2023-05-31T07:21:12;6.13;;;5.63;;
10260;SDS011;5175;42.606;23.388;2023-05-31T07:23:39;6.70;;;5.72;;
10260;SDS011;5175;42.606;23.388;2023-05-31T07:26:06;7.03;;;5.70;;
10260;SDS011;5175;42.606;23.388;2023-05-31T07:28:35;5.95;;;5.35;;
10260;SDS011;5175;42.606;23.388;2023-05-31T07:31:02;7.28;;;6.57;;
10260;SDS011;5175;42.606;23.388;2023-05-31T07:33:29;7.55;;;6.40;;
10260;SDS011;5175;42.606;23.388;2023-05-31T07:35:57;7.82;;;6.50;;
10260;SDS011;5175;42.606;23.388;2023-05-31T07:38:24;8.25;;;6.43;;
10260;SDS011;5175;42.606;23.388;2023-05-31T07:40:51;7.13;;;6.40;;
10260;SDS011;5175;42.606;23.388;2023-05-31T07:43:18;9.32;;;6.05;;
10260;SDS011;5175;42.606;23.388;2023-05-31T07:45:48;7.45;;;6.10;;
10260;SDS011;5175;42.606;23.388;2023-05-31T07:48:15;6.97;;;5.88;;
10260;SDS011;5175;42.606;23.388;2023-05-31T07:50:42;9.65;;;6.68;;
10260;SDS011;5175;42.606;23.388;2023-05-31T07:53:09;7.50;;;6.63;;
10260;SDS011;5175;42.606;23.388;2023-05-31T07:55:36;6.50;;;5.82;;
10260;SDS011;5175;42.606;23.388;2023-05-31T07:58:03;6.85;;;6.15;;
10260;SDS011;5175;42.606;23.388;2023-05-31T08:00:30;8.30;;;6.40;;
10260;SDS011;5175;42.606;23.388;2023-05-31T08:02:58;8.75;;;5.88;;
10260;SDS011;5175;42.606;23.388;2023-05-31T08:05:25;6.85;;;6.20;;
10260;SDS011;5175;42.606;23.388;2023-05-31T08:07:52;6.50;;;5.90;;
10260;SDS011;5175;42.606;23.388;2023-05-31T08:10:19;6.90;;;6.20;;
10260;SDS011;5175;42.606;23.388;2023-05-31T08:12:46;7.10;;;5.88;;
10260;SDS011;5175;42.606;23.388;2023-05-31T08:15:13;7.80;;;7.00;;
10260;SDS011;5175;42.606;23.388;2023-05-31T08:17:43;8.18;;;6.85;;
10260;SDS011;5175;42.606;23.388;2023-05-31T08:20:12;9.40;;;6.25;;
10260;SDS011;5175;42.606;23.388;2023-05-31T08:22:41;7.35;;;6.55;;
10260;SDS011;5175;42.606;23.388;2023-05-31T08:25:09;7.55;;;6.65;;
10260;SDS011;5175;42.606;23.388;2023-05-31T08:27:38;8.68;;;6.18;;
10260;SDS011;5175;42.606;23.388;2023-05-31T08:30:05;7.75;;;6.85;;
10260;SDS011;5175;42.606;23.388;2023-05-31T08:32:34;7.72;;;6.95;;
10260;SDS011;5175;42.606;23.388;2023-05-31T08:35:01;7.75;;;6.95;;
10260;SDS011;5175;42.606;23.388;2023-05-31T08:37:36;6.90;;;5.85;;
10260;SDS011;5175;42.606;23.388;2023-05-31T08:40:03;7.85;;;6.25;;
10260;SDS011;5175;42.606;23.388;2023-05-31T08:42:32;6.50;;;5.90;;
10260;SDS011;5175;42.606;23.388;2023-05-31T08:45:05;8.25;;;5.43;;
10260;SDS011;5175;42.606;23.388;2023-05-31T08:47:35;6.40;;;5.75;;
10260;SDS011;5175;42.606;23.388;2023-05-31T08:50:04;9.25;;;5.60;;
10260;SDS011;5175;42.606;23.388;2023-05-31T08:52:34;6.20;;;5.60;;
10260;SDS011;5175;42.606;23.388;2023-05-31T08:55:01;7.03;;;5.50;;
10260;SDS011;5175;42.606;23.388;2023-05-31T08:57:30;6.55;;;5.95;;
10260;SDS011;5175;42.606;23.388;2023-05-31T08:59:59;7.53;;;5.95;;
10260;SDS011;5175;42.606;23.388;2023-05-31T09:02:33;7.13;;;6.43;;
10260;SDS011;5175;42.606;23.388;2023-05-31T09:05:00;6.38;;;5.75;;
10260;SDS011;5175;42.606;23.388;2023-05-31T09:07:29;6.22;;;5.60;;
10260;SDS011;5175;42.606;23.388;2023-05-31T09:09:57;6.65;;;5.97;;
10260;SDS011;5175;42.606;23.388;2023-05-31T09:12:24;8.35;;;6.00;;
10260;SDS011;5175;42.606;23.388;2023-05-31T09:14:51;9.35;;;6.18;;
10260;SDS011;5175;42.606;23.388;2023-05-31T09:17:18;6.60;;;5.90;;
10260;SDS011;5175;42.606;23.388;2023-05-31T09:19:48;7.30;;;6.60;;
10260;SDS011;5175;42.606;23.388;2023-05-31T09:22:17;6.63;;;6.00;;
10260;SDS011;5175;42.606;23.388;2023-05-31T09:24:48;6.63;;;6.03;;
10260;SDS011;5175;42.606;23.388;2023-05-31T09:27:18;6.95;;;6.05;;
10260;SDS011;5175;42.606;23.388;2023-05-31T09:29:50;6.80;;;6.10;;
10260;SDS011;5175;42.606;23.388;2023-05-31T09:32:18;6.55;;;5.70;;
10260;SDS011;5175;42.606;23.388;2023-05-31T09:34:46;6.60;;;5.80;;
10260;SDS011;5175;42.606;23.388;2023-05-31T09:37:22;6.47;;;5.88;;
10260;SDS011;5175;42.606;23.388;2023-05-31T09:39:53;7.07;;;6.38;;
10260;SDS011;5175;42.606;23.388;2023-05-31T09:42:22;8.15;;;6.03;;
10260;SDS011;5175;42.606;23.388;2023-05-31T09:44:51;7.38;;;6.13;;
10260;SDS011;5175;42.606;23.388;2023-05-31T09:47:22;6.97;;;6.10;;
10260;SDS011;5175;42.606;23.388;2023-05-31T09:49:52;7.78;;;6.60;;
10260;SDS011;5175;42.606;23.388;2023-05-31T09:52:19;7.53;;;6.82;;
10260;SDS011;5175;42.606;23.388;2023-05-31T09:54:52;7.40;;;6.75;;
10260;SDS011;5175;42.606;23.388;2023-05-31T09:57:32;8.55;;;7.28;;
10260;SDS011;5175;42.606;23.388;2023-05-31T10:00:05;8.20;;;6.30;;
10260;SDS011;5175;42.606;23.388;2023-05-31T10:02:37;7.68;;;6.93;;
10260;SDS011;5175;42.606;23.388;2023-05-31T10:05:07;11.07;;;6.68;;
10260;SDS011;5175;42.606;23.388;2023-05-31T10:07:35;7.88;;;6.18;;
10260;SDS011;5175;42.606;23.388;2023-05-31T10:10:03;7.60;;;6.25;;
10260;SDS011;5175;42.606;23.388;2023-05-31T10:12:32;8.40;;;7.07;;
10260;SDS011;5175;42.606;23.388;2023-05-31T10:15:07;7.20;;;6.05;;
10260;SDS011;5175;42.606;23.388;2023-05-31T10:17:40;7.00;;;6.40;;
10260;SDS011;5175;42.606;23.388;2023-05-31T10:20:11;7.90;;;5.32;;
10260;SDS011;5175;42.606;23.388;2023-05-31T10:22:42;6.45;;;4.97;;
10260;SDS011;5175;42.606;23.388;2023-05-31T10:25:12;6.82;;;4.90;;
10260;SDS011;5175;42.606;23.388;2023-05-31T10:27:45;7.00;;;5.50;;
10260;SDS011;5175;42.606;23.388;2023-05-31T10:30:14;6.40;;;5.35;;
10260;SDS011;5175;42.606;23.388;2023-05-31T10:32:50;7.05;;;5.50;;
10260;SDS011;5175;42.606;23.388;2023-05-31T10:35:18;6.60;;;5.63;;
10260;SDS011;5175;42.606;23.388;2023-05-31T10:37:45;7.18;;;5.07;;
10260;SDS011;5175;42.606;23.388;2023-05-31T10:40:17;6.35;;;5.30;;
10260;SDS011;5175;42.606;23.388;2023-05-31T10:42:51;5.22;;;4.82;;
10260;SDS011;5175;42.606;23.388;2023-05-31T10:45:22;5.50;;;4.97;;
10260;SDS011;5175;42.606;23.388;2023-05-31T10:47:52;7.80;;;4.65;;
10260;SDS011;5175;42.606;23.388;2023-05-31T10:50:23;5.40;;;4.90;;
10260;SDS011;5175;42.606;23.388;2023-05-31T10:52:50;5.40;;;4.18;;
10260;SDS011;5175;42.606;23.388;2023-05-31T10:55:18;4.30;;;3.70;;
10260;SDS011;5175;42.606;23.388;2023-05-31T10:57:52;4.93;;;4.05;;
10260;SDS011;5175;42.606;23.388;2023-05-31T11:00:20;4.97;;;3.70;;
10260;SDS011;5175;42.606;23.388;2023-05-31T11:02:48;3.95;;;3.55;;
10260;SDS011;5175;42.606;23.388;2023-05-31T11:05:17;3.47;;;3.17;;
10260;SDS011;5175;42.606;23.388;2023-05-31T11:07:45;5.00;;;4.05;;
10260;SDS011;5175;42.606;23.388;2023-05-31T11:10:23;3.90;;;3.60;;
10260;SDS011;5175;42.606;23.388;2023-05-31T11:12:55;3.65;;;3.33;;
10260;SDS011;5175;42.606;23.388;2023-05-31T11:15:22;5.60;;;3.88;;
10260;SDS011;5175;42.606;23.388;2023-05-31T11:17:52;4.82;;;4.28;;
10260;SDS011;5175;42.606;23.388;2023-05-31T11:20:20;4.18;;;3.78;;
10260;SDS011;5175;42.606;23.388;2023-05-31T11:22:48;4.50;;;4.10;;
10260;SDS011;5175;42.606;23.388;2023-05-31T11:26:09;4.40;;;4.00;;
10260;SDS011;5175;42.606;23.388;2023-05-31T11:28:53;4.97;;;4.00;;
10260;SDS011;5175;42.606;23.388;2023-05-31T11:34:24;4.22;;;3.83;;
10260;SDS011;5175;42.606;23.388;2023-05-31T11:36:53;3.70;;;3.40;;
10260;SDS011;5175;42.606;23.388;2023-05-31T11:39:22;7.88;;;4.40;;
10260;SDS011;5175;42.606;23.388;2023-05-31T11:41:49;4.40;;;4.00;;
10260;SDS011;5175;42.606;23.388;2023-05-31T11:44:19;3.60;;;3.30;;
10260;SDS011;5175;42.606;23.388;2023-05-31T11:46:47;4.88;;;4.38;;
10260;SDS011;5175;42.606;23.388;2023-05-31T11:49:21;6.35;;;4.40;;
10260;SDS011;5175;42.606;23.388;2023-05-31T11:51:48;4.18;;;3.78;;
10260;SDS011;5175;42.606;23.388;2023-05-31T11:54:15;4.28;;;3.95;;
10260;SDS011;5175;42.606;23.388;2023-05-31T11:56:43;5.63;;;4.22;;
10260;SDS011;5175;42.606;23.388;2023-05-31T11:59:10;4.80;;;4.30;;
10260;SDS011;5175;42.606;23.388;2023-05-31T12:01:39;5.05;;;3.92;;
10260;SDS011;5175;42.606;23.388;2023-05-31T12:04:06;4.18;;;3.80;;
10260;SDS011;5175;42.606;23.388;2023-05-31T12:06:33;5.38;;;3.65;;
10260;SDS011;5175;42.606;23.388;2023-05-31T12:09:00;4.57;;;4.00;;
10260;SDS011;5175;42.606;23.388;2023-05-31T12:11:28;5.03;;;4.25;;
10260;SDS011;5175;42.606;23.388;2023-05-31T12:16:32;4.88;;;4.35;;
10260;SDS011;5175;42.606;23.388;2023-05-31T12:19:00;8.85;;;4.63;;
10260;SDS011;5175;42.606;23.388;2023-05-31T12:21:27;6.90;;;4.70;;
10260;SDS011;5175;42.606;23.388;2023-05-31T12:23:54;6.03;;;4.50;;
10260;SDS011;5175;42.606;23.388;2023-05-31T12:26:23;8.63;;;5.28;;
10260;SDS011;5175;42.606;23.388;2023-05-31T12:28:52;9.13;;;4.75;;
10260;SDS011;5175;42.606;23.388;2023-05-31T12:31:21;6.70;;;4.82;;
10260;SDS011;5175;42.606;23.388;2023-05-31T12:33:56;5.18;;;4.30;;
10260;SDS011;5175;42.606;23.388;2023-05-31T12:36:26;4.65;;;4.20;;
10260;SDS011;5175;42.606;23.388;2023-05-31T12:38:54;5.72;;;4.88;;
10260;SDS011;5175;42.606;23.388;2023-05-31T12:41:21;5.00;;;4.53;;
10260;SDS011;5175;42.606;23.388;2023-05-31T12:43:48;5.00;;;4.40;;
10260;SDS011;5175;42.606;23.388;2023-05-31T12:46:16;5.65;;;4.53;;
10260;SDS011;5175;42.606;23.388;2023-05-31T12:48:46;5.45;;;4.00;;
10260;SDS011;5175;42.606;23.388;2023-05-31T12:51:18;5.30;;;4.68;;
10260;SDS011;5175;42.606;23.388;2023-05-31T12:53:47;5.63;;;4.38;;
10260;SDS011;5175;42.606;23.388;2023-05-31T12:56:15;10.93;;;4.75;;
10260;SDS011;5175;42.606;23.388;2023-05-31T12:58:43;6.70;;;4.38;;
10260;SDS011;5175;42.606;23.388;2023-05-31T13:01:10;5.63;;;4.35;;
10260;SDS011;5175;42.606;23.388;2023-05-31T13:03:37;9.57;;;4.38;;
10260;SDS011;5175;42.606;23.388;2023-05-31T13:06:04;4.32;;;3.92;;
10260;SDS011;5175;42.606;23.388;2023-05-31T13:08:31;6.55;;;4.00;;
10260;SDS011;5175;42.606;23.388;2023-05-31T13:11:00;4.78;;;4.38;;
10260;SDS011;5175;42.606;23.388;2023-05-31T13:13:27;5.07;;;4.50;;
10260;SDS011;5175;42.606;23.388;2023-05-31T13:15:55;4.93;;;4.18;;
10260;SDS011;5175;42.606;23.388;2023-05-31T13:18:22;5.40;;;4.38;;
10260;SDS011;5175;42.606;23.388;2023-05-31T13:20:49;4.80;;;4.32;;
10260;SDS011;5175;42.606;23.388;2023-05-31T13:23:16;5.30;;;4.22;;
10260;SDS011;5175;42.606;23.388;2023-05-31T13:25:43;9.73;;;5.43;;
10260;SDS011;5175;42.606;23.388;2023-05-31T13:28:11;6.38;;;4.30;;
10260;SDS011;5175;42.606;23.388;2023-05-31T13:30:38;7.18;;;4.80;;
10260;SDS011;5175;42.606;23.388;2023-05-31T13:33:04;6.82;;;4.85;;
10260;SDS011;5175;42.606;23.388;2023-05-31T13:35:31;12.90;;;5.38;;
10260;SDS011;5175;42.606;23.388;2023-05-31T13:38:00;10.50;;;4.93;;
10260;SDS011;5175;42.606;23.388;2023-05-31T13:40:26;7.13;;;4.78;;
10260;SDS011;5175;42.606;23.388;2023-05-31T13:42:54;7.70;;;5.22;;
10260;SDS011;5175;42.606;23.388;2023-05-31T13:45:22;5.50;;;4.65;;
10260;SDS011;5175;42.606;23.388;2023-05-31T13:47:48;7.13;;;4.80;;
10260;SDS011;5175;42.606;23.388;2023-05-31T13:50:15;7.40;;;4.65;;
10260;SDS011;5175;42.606;23.388;2023-05-31T13:52:42;8.48;;;4.78;;
10260;SDS011;5175;42.606;23.388;2023-05-31T13:55:09;5.25;;;4.75;;
10260;SDS011;5175;42.606;23.388;2023-05-31T13:57:36;10.63;;;4.75;;
10260;SDS011;5175;42.606;23.388;2023-05-31T14:00:03;8.43;;;5.28;;
10260;SDS011;5175;42.606;23.388;2023-05-31T14:02:35;7.72;;;5.00;;
10260;SDS011;5175;42.606;23.388;2023-05-31T14:05:05;9.55;;;5.40;;
10260;SDS011;5175;42.606;23.388;2023-05-31T14:07:33;5.75;;;4.85;;
10260;SDS011;5175;42.606;23.388;2023-05-31T14:10:00;11.02;;;5.30;;
10260;SDS011;5175;42.606;23.388;2023-05-31T14:12:27;5.55;;;4.40;;
10260;SDS011;5175;42.606;23.388;2023-05-31T14:14:54;7.32;;;5.10;;
10260;SDS011;5175;42.606;23.388;2023-05-31T14:17:22;5.32;;;4.40;;
10260;SDS011;5175;42.606;23.388;2023-05-31T14:19:50;8.77;;;4.97;;
10260;SDS011;5175;42.606;23.388;2023-05-31T14:22:17;5.70;;;4.55;;
10260;SDS011;5175;42.606;23.388;2023-05-31T14:24:46;5.57;;;4.82;;
10260;SDS011;5175;42.606;23.388;2023-05-31T14:27:15;4.82;;;4.32;;
10260;SDS011;5175;42.606;23.388;2023-05-31T14:29:43;6.43;;;4.90;;
10260;SDS011;5175;42.606;23.388;2023-05-31T14:32:11;6.18;;;5.07;;
10260;SDS011;5175;42.606;23.388;2023-05-31T14:34:39;5.32;;;4.82;;
10260;SDS011;5175;42.606;23.388;2023-05-31T14:37:08;5.90;;;4.85;;
10260;SDS011;5175;42.606;23.388;2023-05-31T14:39:34;5.95;;;4.60;;
10260;SDS011;5175;42.606;23.388;2023-05-31T14:42:01;5.30;;;4.50;;
10260;SDS011;5175;42.606;23.388;2023-05-31T14:44:28;5.13;;;4.63;;
10260;SDS011;5175;42.606;23.388;2023-05-31T14:46:55;5.95;;;4.85;;
10260;SDS011;5175;42.606;23.388;2023-05-31T14:49:22;6.85;;;4.47;;
10260;SDS011;5175;42.606;23.388;2023-05-31T14:51:49;7.15;;;4.82;;
10260;SDS011;5175;42.606;23.388;2023-05-31T14:54:18;6.30;;;4.50;;
10260;SDS011;5175;42.606;23.388;2023-05-31T14:56:45;5.57;;;4.47;;
10260;SDS011;5175;42.606;23.388;2023-05-31T14:59:12;7.72;;;4.90;;